< Typhoon 197105 1971 Season Typhoon 197107 >
Typhoon 197106 (BABE)
General InformationTrack Information on Google Maps || Disaster Info.ResourceGoogle EarthGE AnimationAtom FeedGeoJSON
Detalied Best Track (Time Zone = UTC)
Year Month Day Hour Lat. Long. Pressure (hPa) Wind (kt) Class Image Chart
1971 5 2 06 14.3 119.7 1004 0 2 -- Chart
1971 5 2 12 14.5 119.5 1004 0 2 -- Chart
1971 5 2 18 14.7 119.3 1004 0 2 -- Chart
1971 5 3 00 14.9 119.0 1004 0 2 -- Chart
1971 5 3 06 15.3 118.6 1007 0 2 -- Chart
1971 5 3 12 16.0 118.2 998 0 9 -- Chart
1971 5 3 18 16.3 118.0 1000 0 9 -- Chart
1971 5 4 00 17.0 118.0 1000 0 9 -- Chart
1971 5 4 06 17.5 118.2 1000 0 9 -- Chart
1971 5 4 12 18.0 118.5 995 0 9 -- Chart
1971 5 4 18 18.4 118.8 995 0 9 -- Chart
1971 5 5 00 19.2 119.5 995 0 9 -- Chart
1971 5 5 06 20.2 120.6 995 0 9 -- Chart
1971 5 5 12 20.5 122.0 990 0 9 -- Chart
1971 5 5 18 21.0 123.5 990 0 9 -- Chart
1971 5 6 00 21.2 125.1 995 0 9 -- Chart
1971 5 6 06 21.5 127.0 995 0 9 -- Chart
1971 5 6 12 22.0 129.1 995 0 9 -- Chart
1971 5 6 18 22.0 131.2 1000 0 9 -- Chart
1971 5 7 00 22.0 133.3 1006 0 2 -- Chart
1971 5 7 06 22.0 135.0 1006 0 6 -- Chart
1971 5 7 12 22.4 136.6 1008 0 6 -- Chart
1971 5 7 18 23.2 138.3 1008 0 6 -- Chart
1971 5 8 00 24.1 140.0 1008 0 6 -- Chart
1971 5 8 06 24.9 141.8 1008 0 6 -- Chart
1971 5 8 12 25.9 143.7 1010 0 6 -- Chart
1971 5 8 18 26.5 145.3 1010 0 6 -- Chart
1971 5 9 00 27.2 146.5 1010 0 6 -- Chart
1971 5 9 06 27.5 147.5 1010 0 6 -- Chart
1971 5 9 12 27.8 148.8 1010 0 6 -- Chart
1971 5 9 18 28.2 150.0 1010 0 6 -- Chart
Japan Meteorological Agency Best Track Data | Correction Date : 1989-06-01
< Typhoon 197105 1971 Season Typhoon 197107 >

Help